Portada
METAR-TAF:

METAR-TAF

Aeroports :

Doha, Qatar

latitud: 25-15-40N, longitud: 051-33-54E, altitud: 11 m

Observació

L'informe es va fer fa 28 minuts, a les 23:00 UTC
Vent 2 kt amb direcció variable
Temperatura 23°C
Humitat 53%
Pressió 1016 hPa
Visibilitat 10 km o més
sense núvols per sota de 1500 mi sense presència de cumulonimbus.

METAR: OTBD 132300Z VRB02KT CAVOK 23/13 Q1016 NOSIG

Hora: 02:28 (23:28 UTC)

Pronòstic

L'informe es va fer fa 6 hores i 27 minuts, a les 17:01 UTC
Pronòstic vàlid del 13 a les 18 UTC al 14 a les 24 UTC
Vent 7 kt del Nord-Est
Visibilitat: 9000 m
Evolucionant progressivament
l' 13 a les 19 UTC al 13 a les 21 UTC
Vent 7 kt del Nord-Oest
Temporalment
l' 13 a les 23 UTC al 14 a les 04 UTC
Vent 3 kt amb direcció variable

TAF: OTBD 131701Z 1318/1424 05007KT 9000 NSC BECMG 1319/1321 32007KT TEMPO 1323/1404 VRB03KT

Observacions i pronòstics meteorològics de més de 4000 aeroports (METAR i TAF).

Les estacions disponibles són els punts grocs i vermells al mapa.

Posi el ratolí al punt desitjat per veure el nom de l'estació.

Feu clic per veure les observacions i els pronòstics meteorològics.

Per canviar el mapa: feu clic els botons verds amb una creu de color negre per apropar; al botó verd amb un guió per allunyar la imatge; o en les fletxes verdes per a mapes adjacents.


METAR-TAF: